East Wakefield, New Hampshire
Current Conditions -  °F | °C
As of 12:55 AM on Wednesday 22 Oct 2014 (Local Time) from KLCI Reporting Station
Overcast Overcast  
Wind Chill: 42°   Ceiling: 1800
Heat Index: 46°   Visibility: 10mi
Dew Point: 43°   Wind: 9mph
Humidity: 87%   Direction: 50°NE
Pressure: 30.04"   Gusts: NA
Location:  43.61°N, 71.01°W
Report Text: KLCI 220455Z AUTO 05008KT 10SM BKN018 OVC023 08/06 A3004 RMK AO1 P0001
Loading
Personal Weather Stations






























Interactive Weather Map
Tropical Storm Tracking
New forecast layout! Learn more

10-Day Weather Forecast

Advertisements
Track Severe Weather on mobile